sensor_id;sensor_type;location;lat;lon;timestamp;temperature;humidity
10875;DHT22;5490;52.200;8.786;2023-02-11T09:23:29;6.10;99.90
10875;DHT22;5490;52.200;8.786;2023-02-11T09:25:58;7.50;99.90
10875;DHT22;5490;52.200;8.786;2023-02-11T09:28:25;7.40;99.90
10875;DHT22;5490;52.200;8.786;2023-02-11T09:30:52;7.50;99.90
10875;DHT22;5490;52.200;8.786;2023-02-11T09:33:19;7.50;99.90
10875;DHT22;5490;52.200;8.786;2023-02-11T09:35:50;7.40;99.90
10875;DHT22;5490;52.200;8.786;2023-02-11T09:38:17;7.40;99.90
10875;DHT22;5490;52.200;8.786;2023-02-11T09:40:45;7.40;99.90
10875;DHT22;5490;52.200;8.786;2023-02-11T09:43:18;7.40;99.90
10875;DHT22;5490;52.200;8.786;2023-02-11T09:45:45;7.40;99.90
10875;DHT22;5490;52.200;8.786;2023-02-11T09:48:15;7.40;99.90
10875;DHT22;5490;52.200;8.786;2023-02-11T09:50:45;7.40;99.90
10875;DHT22;5490;52.200;8.786;2023-02-11T09:53:17;7.40;99.90
10875;DHT22;5490;52.200;8.786;2023-02-11T09:55:51;7.40;99.90
10875;DHT22;5490;52.200;8.786;2023-02-11T09:58:25;7.40;99.90
10875;DHT22;5490;52.200;8.786;2023-02-11T10:00:59;7.40;99.90
10875;DHT22;5490;52.200;8.786;2023-02-11T10:03:41;7.40;99.90
10875;DHT22;5490;52.200;8.786;2023-02-11T10:09:15;7.40;99.90
10875;DHT22;5490;52.200;8.786;2023-02-11T10:11:51;7.50;99.90
10875;DHT22;5490;52.200;8.786;2023-02-11T10:14:34;7.50;99.90
10875;DHT22;5490;52.200;8.786;2023-02-11T10:17:13;7.50;99.90
10875;DHT22;5490;52.200;8.786;2023-02-11T10:19:57;7.50;99.90
10875;DHT22;5490;52.200;8.786;2023-02-11T10:22:30;7.50;99.90
10875;DHT22;5490;52.200;8.786;2023-02-11T10:24:58;7.50;99.90
10875;DHT22;5490;52.200;8.786;2023-02-11T10:27:32;7.50;99.90
10875;DHT22;5490;52.200;8.786;2023-02-11T10:30:03;7.60;99.90
10875;DHT22;5490;52.200;8.786;2023-02-11T10:32:36;7.60;99.90
10875;DHT22;5490;52.200;8.786;2023-02-11T10:35:13;7.60;99.90
10875;DHT22;5490;52.200;8.786;2023-02-11T10:37:40;7.60;99.90
10875;DHT22;5490;52.200;8.786;2023-02-11T10:40:12;7.60;99.90
10875;DHT22;5490;52.200;8.786;2023-02-11T10:42:43;7.60;99.90
10875;DHT22;5490;52.200;8.786;2023-02-11T10:45:17;7.60;99.90
10875;DHT22;5490;52.200;8.786;2023-02-11T10:47:45;7.60;99.90
10875;DHT22;5490;52.200;8.786;2023-02-11T10:50:19;7.60;99.90
10875;DHT22;5490;52.200;8.786;2023-02-11T10:52:46;7.70;99.90
10875;DHT22;5490;52.200;8.786;2023-02-11T10:55:16;7.70;99.90
10875;DHT22;5490;52.200;8.786;2023-02-11T10:57:53;7.70;99.90
10875;DHT22;5490;52.200;8.786;2023-02-11T11:00:32;7.80;99.90
10875;DHT22;5490;52.200;8.786;2023-02-11T11:03:02;7.80;99.90
10875;DHT22;5490;52.200;8.786;2023-02-11T11:05:32;7.80;99.90
10875;DHT22;5490;52.200;8.786;2023-02-11T11:08:01;7.80;99.90
10875;DHT22;5490;52.200;8.786;2023-02-11T11:10:35;7.80;99.90
10875;DHT22;5490;52.200;8.786;2023-02-11T11:13:23;7.80;99.90
10875;DHT22;5490;52.200;8.786;2023-02-11T11:16:14;7.90;99.90
10875;DHT22;5490;52.200;8.786;2023-02-11T11:18:42;7.90;99.90
10875;DHT22;5490;52.200;8.786;2023-02-11T11:21:13;7.90;99.90
10875;DHT22;5490;52.200;8.786;2023-02-11T11:23:51;7.90;99.90
10875;DHT22;5490;52.200;8.786;2023-02-11T11:26:19;7.90;99.90
10875;DHT22;5490;52.200;8.786;2023-02-11T11:28:54;7.90;99.90
10875;DHT22;5490;52.200;8.786;2023-02-11T11:31:23;7.80;99.90
10875;DHT22;5490;52.200;8.786;2023-02-11T11:33:54;7.80;99.90
10875;DHT22;5490;52.200;8.786;2023-02-11T11:36:29;7.80;99.90
10875;DHT22;5490;52.200;8.786;2023-02-11T11:39:01;7.90;99.90
10875;DHT22;5490;52.200;8.786;2023-02-11T11:41:30;7.90;99.90
10875;DHT22;5490;52.200;8.786;2023-02-11T11:44:02;8.00;99.90
10875;DHT22;5490;52.200;8.786;2023-02-11T11:46:32;8.00;99.90
10875;DHT22;5490;52.200;8.786;2023-02-11T11:49:12;8.00;99.90
10875;DHT22;5490;52.200;8.786;2023-02-11T11:51:43;8.00;99.90
10875;DHT22;5490;52.200;8.786;2023-02-11T11:54:12;8.10;99.90
10875;DHT22;5490;52.200;8.786;2023-02-11T11:56:49;8.00;99.90
10875;DHT22;5490;52.200;8.786;2023-02-11T11:59:18;8.10;99.90
10875;DHT22;5490;52.200;8.786;2023-02-11T12:02:00;8.10;99.90
10875;DHT22;5490;52.200;8.786;2023-02-11T12:04:45;8.10;99.90
10875;DHT22;5490;52.200;8.786;2023-02-11T12:07:25;8.10;99.90
10875;DHT22;5490;52.200;8.786;2023-02-11T12:10:15;8.10;99.90
10875;DHT22;5490;52.200;8.786;2023-02-11T12:12:53;8.10;99.90
10875;DHT22;5490;52.200;8.786;2023-02-11T12:15:31;8.10;99.90
10875;DHT22;5490;52.200;8.786;2023-02-11T12:18:10;8.10;99.90
10875;DHT22;5490;52.200;8.786;2023-02-11T12:20:53;8.10;99.90
10875;DHT22;5490;52.200;8.786;2023-02-11T12:23:41;8.10;99.90
10875;DHT22;5490;52.200;8.786;2023-02-11T12:26:13;8.10;99.90
10875;DHT22;5490;52.200;8.786;2023-02-11T12:28:49;8.20;99.90
10875;DHT22;5490;52.200;8.786;2023-02-11T12:31:28;8.20;99.90
10875;DHT22;5490;52.200;8.786;2023-02-11T12:34:35;8.20;99.90
10875;DHT22;5490;52.200;8.786;2023-02-11T12:37:17;8.20;99.90
10875;DHT22;5490;52.200;8.786;2023-02-11T12:39:50;8.20;99.90
10875;DHT22;5490;52.200;8.786;2023-02-11T12:42:36;8.20;99.90
10875;DHT22;5490;52.200;8.786;2023-02-11T12:45:41;8.20;99.90
10875;DHT22;5490;52.200;8.786;2023-02-11T12:48:32;8.30;99.90
10875;DHT22;5490;52.200;8.786;2023-02-11T12:51:06;8.30;99.90
10875;DHT22;5490;52.200;8.786;2023-02-11T12:53:51;8.30;99.90
10875;DHT22;5490;52.200;8.786;2023-02-11T12:56:25;8.40;99.90
10875;DHT22;5490;52.200;8.786;2023-02-11T12:58:55;8.40;99.90
10875;DHT22;5490;52.200;8.786;2023-02-11T13:01:25;8.40;99.90
10875;DHT22;5490;52.200;8.786;2023-02-11T13:03:56;8.50;99.90
10875;DHT22;5490;52.200;8.786;2023-02-11T13:06:30;8.50;99.90
10875;DHT22;5490;52.200;8.786;2023-02-11T13:09:00;8.50;99.90
10875;DHT22;5490;52.200;8.786;2023-02-11T13:11:32;8.50;99.90
10875;DHT22;5490;52.200;8.786;2023-02-11T13:14:04;8.50;99.90
10875;DHT22;5490;52.200;8.786;2023-02-11T13:16:35;8.50;99.90
10875;DHT22;5490;52.200;8.786;2023-02-11T13:19:11;8.50;99.90
10875;DHT22;5490;52.200;8.786;2023-02-11T13:21:52;8.60;99.90
10875;DHT22;5490;52.200;8.786;2023-02-11T13:24:25;8.60;99.90
10875;DHT22;5490;52.200;8.786;2023-02-11T13:27:01;8.50;99.90
10875;DHT22;5490;52.200;8.786;2023-02-11T13:29:39;8.60;99.90
10875;DHT22;5490;52.200;8.786;2023-02-11T13:32:10;8.50;99.90
10875;DHT22;5490;52.200;8.786;2023-02-11T13:34:57;8.40;99.90
10875;DHT22;5490;52.200;8.786;2023-02-11T13:37:26;8.40;99.90
10875;DHT22;5490;52.200;8.786;2023-02-11T13:39:59;8.40;99.90
10875;DHT22;5490;52.200;8.786;2023-02-11T13:42:31;8.40;99.90
10875;DHT22;5490;52.200;8.786;2023-02-11T13:44:59;8.40;99.90
10875;DHT22;5490;52.200;8.786;2023-02-11T13:47:29;8.40;99.90
10875;DHT22;5490;52.200;8.786;2023-02-11T13:49:59;8.40;99.90
10875;DHT22;5490;52.200;8.786;2023-02-11T13:52:29;8.40;99.90
10875;DHT22;5490;52.200;8.786;2023-02-11T13:55:00;8.40;99.90
10875;DHT22;5490;52.200;8.786;2023-02-11T13:57:34;8.40;99.90
10875;DHT22;5490;52.200;8.786;2023-02-11T14:00:09;8.50;99.90
10875;DHT22;5490;52.200;8.786;2023-02-11T14:03:19;8.50;99.90
10875;DHT22;5490;52.200;8.786;2023-02-11T14:06:11;8.50;99.90
10875;DHT22;5490;52.200;8.786;2023-02-11T14:09:00;8.60;99.90
10875;DHT22;5490;52.200;8.786;2023-02-11T14:11:44;8.60;99.90
10875;DHT22;5490;52.200;8.786;2023-02-11T14:14:15;8.60;99.90
10875;DHT22;5490;52.200;8.786;2023-02-11T14:19:50;8.60;99.90
10875;DHT22;5490;52.200;8.786;2023-02-11T14:22:20;8.60;99.90
10875;DHT22;5490;52.200;8.786;2023-02-11T14:24:51;8.70;99.90
10875;DHT22;5490;52.200;8.786;2023-02-11T14:27:24;8.60;99.90
10875;DHT22;5490;52.200;8.786;2023-02-11T14:30:28;8.60;99.90
10875;DHT22;5490;52.200;8.786;2023-02-11T14:33:19;8.60;99.90
10875;DHT22;5490;52.200;8.786;2023-02-11T14:35:57;8.60;99.90
10875;DHT22;5490;52.200;8.786;2023-02-11T14:38:34;8.60;99.90
10875;DHT22;5490;52.200;8.786;2023-02-11T14:41:05;8.60;99.90
10875;DHT22;5490;52.200;8.786;2023-02-11T14:43:37;8.60;99.90
10875;DHT22;5490;52.200;8.786;2023-02-11T14:46:05;8.60;99.90
10875;DHT22;5490;52.200;8.786;2023-02-11T14:48:33;8.60;99.90
10875;DHT22;5490;52.200;8.786;2023-02-11T14:51:06;8.60;99.90
10875;DHT22;5490;52.200;8.786;2023-02-11T14:53:34;8.60;99.90
10875;DHT22;5490;52.200;8.786;2023-02-11T14:56:02;8.60;99.90
10875;DHT22;5490;52.200;8.786;2023-02-11T14:58:30;8.60;99.90
10875;DHT22;5490;52.200;8.786;2023-02-11T15:00:59;8.60;99.90
10875;DHT22;5490;52.200;8.786;2023-02-11T15:03:32;8.60;99.90
10875;DHT22;5490;52.200;8.786;2023-02-11T15:06:03;8.70;99.90
10875;DHT22;5490;52.200;8.786;2023-02-11T15:08:32;8.70;99.90
10875;DHT22;5490;52.200;8.786;2023-02-11T15:11:02;8.70;99.90
10875;DHT22;5490;52.200;8.786;2023-02-11T15:13:30;8.70;99.90
10875;DHT22;5490;52.200;8.786;2023-02-11T15:16:00;8.70;99.90
10875;DHT22;5490;52.200;8.786;2023-02-11T15:18:34;8.70;99.90
10875;DHT22;5490;52.200;8.786;2023-02-11T15:21:04;8.70;99.90
10875;DHT22;5490;52.200;8.786;2023-02-11T15:23:31;8.70;99.90
10875;DHT22;5490;52.200;8.786;2023-02-11T15:25:58;8.70;99.90
10875;DHT22;5490;52.200;8.786;2023-02-11T15:28:31;8.70;99.90
10875;DHT22;5490;52.200;8.786;2023-02-11T15:31:00;8.70;99.90
10875;DHT22;5490;52.200;8.786;2023-02-11T15:33:27;8.70;99.90
10875;DHT22;5490;52.200;8.786;2023-02-11T15:35:57;8.60;99.90
10875;DHT22;5490;52.200;8.786;2023-02-11T15:38:25;8.60;99.90
10875;DHT22;5490;52.200;8.786;2023-02-11T15:40:56;8.60;99.90
10875;DHT22;5490;52.200;8.786;2023-02-11T15:43:23;8.60;99.90
10875;DHT22;5490;52.200;8.786;2023-02-11T15:45:57;8.60;99.90
10875;DHT22;5490;52.200;8.786;2023-02-11T15:48:31;8.60;99.90
10875;DHT22;5490;52.200;8.786;2023-02-11T15:51:11;8.60;99.90
10875;DHT22;5490;52.200;8.786;2023-02-11T15:53:41;8.60;99.90
10875;DHT22;5490;52.200;8.786;2023-02-11T15:56:13;8.70;99.90
10875;DHT22;5490;52.200;8.786;2023-02-11T15:58:44;8.70;99.90
10875;DHT22;5490;52.200;8.786;2023-02-11T16:01:12;8.70;99.90
10875;DHT22;5490;52.200;8.786;2023-02-11T16:03:40;8.70;99.90
10875;DHT22;5490;52.200;8.786;2023-02-11T16:06:21;8.70;99.90
10875;DHT22;5490;52.200;8.786;2023-02-11T16:09:02;8.70;99.90
10875;DHT22;5490;52.200;8.786;2023-02-11T16:11:31;8.70;99.90
10875;DHT22;5490;52.200;8.786;2023-02-11T16:13:59;8.70;99.90
10875;DHT22;5490;52.200;8.786;2023-02-11T16:16:28;8.70;99.90
10875;DHT22;5490;52.200;8.786;2023-02-11T16:18:56;8.70;99.90
10875;DHT22;5490;52.200;8.786;2023-02-11T16:21:27;8.70;99.90
10875;DHT22;5490;52.200;8.786;2023-02-11T16:23:57;8.70;99.90
10875;DHT22;5490;52.200;8.786;2023-02-11T16:26:30;8.70;99.90
10875;DHT22;5490;52.200;8.786;2023-02-11T16:29:06;8.70;99.90
10875;DHT22;5490;52.200;8.786;2023-02-11T16:31:35;8.70;99.90
10875;DHT22;5490;52.200;8.786;2023-02-11T16:34:12;8.70;99.90
10875;DHT22;5490;52.200;8.786;2023-02-11T16:36:39;8.80;99.90
10875;DHT22;5490;52.200;8.786;2023-02-11T16:39:05;8.80;99.90
10875;DHT22;5490;52.200;8.786;2023-02-11T16:41:34;8.70;99.90
10875;DHT22;5490;52.200;8.786;2023-02-11T16:44:01;8.70;99.90
10875;DHT22;5490;52.200;8.786;2023-02-11T16:46:29;8.80;99.90
10875;DHT22;5490;52.200;8.786;2023-02-11T16:48:57;8.70;99.90
10875;DHT22;5490;52.200;8.786;2023-02-11T16:51:30;8.70;99.90
10875;DHT22;5490;52.200;8.786;2023-02-11T16:53:57;8.80;99.90
10875;DHT22;5490;52.200;8.786;2023-02-11T16:56:23;8.70;99.90
10875;DHT22;5490;52.200;8.786;2023-02-11T16:58:52;8.70;99.90
10875;DHT22;5490;52.200;8.786;2023-02-11T17:01:19;8.70;99.90
10875;DHT22;5490;52.200;8.786;2023-02-11T17:03:46;8.70;99.90
10875;DHT22;5490;52.200;8.786;2023-02-11T17:06:13;8.70;99.90
10875;DHT22;5490;52.200;8.786;2023-02-11T17:08:40;8.70;99.90
10875;DHT22;5490;52.200;8.786;2023-02-11T17:11:06;8.60;99.90
10875;DHT22;5490;52.200;8.786;2023-02-11T17:13:34;8.60;99.90
10875;DHT22;5490;52.200;8.786;2023-02-11T17:16:02;8.60;99.90
10875;DHT22;5490;52.200;8.786;2023-02-11T17:18:29;8.60;99.90
10875;DHT22;5490;52.200;8.786;2023-02-11T17:20:55;8.60;99.90
10875;DHT22;5490;52.200;8.786;2023-02-11T17:23:22;8.60;99.90
10875;DHT22;5490;52.200;8.786;2023-02-11T17:25:54;8.70;99.90
10875;DHT22;5490;52.200;8.786;2023-02-11T17:28:22;8.60;99.90
10875;DHT22;5490;52.200;8.786;2023-02-11T17:30:49;8.60;99.90
10875;DHT22;5490;52.200;8.786;2023-02-11T17:33:17;8.60;99.90
10875;DHT22;5490;52.200;8.786;2023-02-11T17:35:44;8.60;99.90
10875;DHT22;5490;52.200;8.786;2023-02-11T17:38:11;8.60;99.90
10875;DHT22;5490;52.200;8.786;2023-02-11T17:40:38;8.60;99.90
10875;DHT22;5490;52.200;8.786;2023-02-11T17:43:05;8.50;99.90
10875;DHT22;5490;52.200;8.786;2023-02-11T17:45:31;8.60;99.90
10875;DHT22;5490;52.200;8.786;2023-02-11T17:47:58;8.50;99.90
10875;DHT22;5490;52.200;8.786;2023-02-11T17:50:27;8.60;99.90
10875;DHT22;5490;52.200;8.786;2023-02-11T17:52:54;8.50;99.90
10875;DHT22;5490;52.200;8.786;2023-02-11T17:55:21;8.50;99.90
10875;DHT22;5490;52.200;8.786;2023-02-11T17:57:47;8.50;99.90
10875;DHT22;5490;52.200;8.786;2023-02-11T18:00:15;8.60;99.90
10875;DHT22;5490;52.200;8.786;2023-02-11T18:02:41;8.50;99.90
10875;DHT22;5490;52.200;8.786;2023-02-11T18:05:09;8.60;99.90
10875;DHT22;5490;52.200;8.786;2023-02-11T18:07:37;8.50;99.90
10875;DHT22;5490;52.200;8.786;2023-02-11T18:10:05;8.50;99.90
10875;DHT22;5490;52.200;8.786;2023-02-11T18:12:32;8.60;99.90
10875;DHT22;5490;52.200;8.786;2023-02-11T18:14:58;8.50;99.90
10875;DHT22;5490;52.200;8.786;2023-02-11T18:17:25;8.60;99.90
10875;DHT22;5490;52.200;8.786;2023-02-11T18:19:54;8.60;99.90
10875;DHT22;5490;52.200;8.786;2023-02-11T18:22:21;8.60;99.90
10875;DHT22;5490;52.200;8.786;2023-02-11T18:24:52;8.60;99.90
10875;DHT22;5490;52.200;8.786;2023-02-11T18:27:19;8.60;99.90
10875;DHT22;5490;52.200;8.786;2023-02-11T18:29:46;8.60;99.90
10875;DHT22;5490;52.200;8.786;2023-02-11T18:32:13;8.60;99.90
10875;DHT22;5490;52.200;8.786;2023-02-11T18:34:40;8.60;99.90
10875;DHT22;5490;52.200;8.786;2023-02-11T18:37:07;8.60;99.90
10875;DHT22;5490;52.200;8.786;2023-02-11T18:39:34;8.60;99.90
10875;DHT22;5490;52.200;8.786;2023-02-11T18:42:05;8.60;99.90
10875;DHT22;5490;52.200;8.786;2023-02-11T18:44:32;8.60;99.90
10875;DHT22;5490;52.200;8.786;2023-02-11T18:46:59;8.60;99.90
10875;DHT22;5490;52.200;8.786;2023-02-11T18:49:26;8.70;99.90
10875;DHT22;5490;52.200;8.786;2023-02-11T18:51:56;8.70;99.90
10875;DHT22;5490;52.200;8.786;2023-02-11T18:54:23;8.70;99.90
10875;DHT22;5490;52.200;8.786;2023-02-11T18:56:50;8.60;99.90
10875;DHT22;5490;52.200;8.786;2023-02-11T18:59:18;8.70;99.90
10875;DHT22;5490;52.200;8.786;2023-02-11T19:01:45;8.70;99.90
10875;DHT22;5490;52.200;8.786;2023-02-11T19:04:12;8.70;99.90
10875;DHT22;5490;52.200;8.786;2023-02-11T19:06:46;8.70;99.90
10875;DHT22;5490;52.200;8.786;2023-02-11T19:09:15;8.60;99.90
10875;DHT22;5490;52.200;8.786;2023-02-11T19:11:42;8.70;99.90
10875;DHT22;5490;52.200;8.786;2023-02-11T19:14:23;8.70;99.90
10875;DHT22;5490;52.200;8.786;2023-02-11T19:16:52;8.70;99.90
10875;DHT22;5490;52.200;8.786;2023-02-11T19:19:20;8.70;99.90
10875;DHT22;5490;52.200;8.786;2023-02-11T19:21:48;8.70;99.90
10875;DHT22;5490;52.200;8.786;2023-02-11T19:24:16;8.80;99.90
10875;DHT22;5490;52.200;8.786;2023-02-11T19:26:45;8.80;99.90
10875;DHT22;5490;52.200;8.786;2023-02-11T19:29:12;8.80;99.90
10875;DHT22;5490;52.200;8.786;2023-02-11T19:31:40;8.80;99.90
10875;DHT22;5490;52.200;8.786;2023-02-11T19:34:08;8.80;99.90
10875;DHT22;5490;52.200;8.786;2023-02-11T19:36:35;8.80;99.90
10875;DHT22;5490;52.200;8.786;2023-02-11T19:39:03;8.80;99.90
10875;DHT22;5490;52.200;8.786;2023-02-11T19:41:31;8.80;99.90
10875;DHT22;5490;52.200;8.786;2023-02-11T19:44:00;8.90;99.90
10875;DHT22;5490;52.200;8.786;2023-02-11T19:46:30;8.90;99.90
10875;DHT22;5490;52.200;8.786;2023-02-11T19:48:59;8.90;99.90
10875;DHT22;5490;52.200;8.786;2023-02-11T19:51:26;8.90;99.90
10875;DHT22;5490;52.200;8.786;2023-02-11T19:53:53;8.80;99.90
10875;DHT22;5490;52.200;8.786;2023-02-11T19:56:20;8.80;99.90
10875;DHT22;5490;52.200;8.786;2023-02-11T19:58:47;8.80;99.90
10875;DHT22;5490;52.200;8.786;2023-02-11T20:01:16;8.80;99.90
10875;DHT22;5490;52.200;8.786;2023-02-11T20:03:45;8.80;99.90
10875;DHT22;5490;52.200;8.786;2023-02-11T20:06:17;8.80;99.90
10875;DHT22;5490;52.200;8.786;2023-02-11T20:08:44;8.80;99.90
10875;DHT22;5490;52.200;8.786;2023-02-11T20:11:13;8.80;99.90
10875;DHT22;5490;52.200;8.786;2023-02-11T20:13:41;8.80;99.90
10875;DHT22;5490;52.200;8.786;2023-02-11T20:16:10;8.70;99.90
10875;DHT22;5490;52.200;8.786;2023-02-11T20:18:37;8.80;99.90
10875;DHT22;5490;52.200;8.786;2023-02-11T20:21:08;8.80;99.90
10875;DHT22;5490;52.200;8.786;2023-02-11T20:23:36;8.80;99.90
10875;DHT22;5490;52.200;8.786;2023-02-11T20:26:06;8.80;99.90
10875;DHT22;5490;52.200;8.786;2023-02-11T20:28:33;8.80;99.90
10875;DHT22;5490;52.200;8.786;2023-02-11T20:31:00;8.80;99.90
10875;DHT22;5490;52.200;8.786;2023-02-11T20:33:26;8.80;99.90
10875;DHT22;5490;52.200;8.786;2023-02-11T20:35:55;8.80;99.90
10875;DHT22;5490;52.200;8.786;2023-02-11T20:38:22;8.80;99.90
10875;DHT22;5490;52.200;8.786;2023-02-11T20:40:51;8.80;99.90
10875;DHT22;5490;52.200;8.786;2023-02-11T20:43:18;8.70;99.90
10875;DHT22;5490;52.200;8.786;2023-02-11T20:45:46;8.90;99.90
10875;DHT22;5490;52.200;8.786;2023-02-11T20:48:13;8.70;99.90
10875;DHT22;5490;52.200;8.786;2023-02-11T20:50:40;8.70;99.90
10875;DHT22;5490;52.200;8.786;2023-02-11T20:53:07;8.80;99.90
10875;DHT22;5490;52.200;8.786;2023-02-11T20:55:36;8.80;99.90
10875;DHT22;5490;52.200;8.786;2023-02-11T20:58:05;8.80;99.90
10875;DHT22;5490;52.200;8.786;2023-02-11T21:00:34;8.80;99.90
10875;DHT22;5490;52.200;8.786;2023-02-11T21:03:02;8.80;99.90
10875;DHT22;5490;52.200;8.786;2023-02-11T21:05:29;8.80;99.90
10875;DHT22;5490;52.200;8.786;2023-02-11T21:07:56;8.80;99.90
10875;DHT22;5490;52.200;8.786;2023-02-11T21:10:23;8.70;99.90
10875;DHT22;5490;52.200;8.786;2023-02-11T21:12:50;8.70;99.90
10875;DHT22;5490;52.200;8.786;2023-02-11T21:15:18;8.80;99.90
10875;DHT22;5490;52.200;8.786;2023-02-11T21:17:48;8.80;99.90
10875;DHT22;5490;52.200;8.786;2023-02-11T21:20:15;8.80;99.90
10875;DHT22;5490;52.200;8.786;2023-02-11T21:22:42;8.80;99.90
10875;DHT22;5490;52.200;8.786;2023-02-11T21:25:08;8.80;99.90
10875;DHT22;5490;52.200;8.786;2023-02-11T21:27:36;8.80;99.90
10875;DHT22;5490;52.200;8.786;2023-02-11T21:30:03;8.80;99.90
10875;DHT22;5490;52.200;8.786;2023-02-11T21:32:31;8.80;99.90
10875;DHT22;5490;52.200;8.786;2023-02-11T21:34:58;8.80;99.90
10875;DHT22;5490;52.200;8.786;2023-02-11T21:37:25;8.80;99.90
10875;DHT22;5490;52.200;8.786;2023-02-11T21:39:51;8.80;99.90
10875;DHT22;5490;52.200;8.786;2023-02-11T21:42:18;8.80;99.90
10875;DHT22;5490;52.200;8.786;2023-02-11T21:44:48;8.80;99.90
10875;DHT22;5490;52.200;8.786;2023-02-11T21:47:15;8.90;99.90
10875;DHT22;5490;52.200;8.786;2023-02-11T21:49:43;8.80;99.90
10875;DHT22;5490;52.200;8.786;2023-02-11T21:52:09;8.80;99.90
10875;DHT22;5490;52.200;8.786;2023-02-11T21:54:36;8.80;99.90
10875;DHT22;5490;52.200;8.786;2023-02-11T21:57:03;8.80;99.90
10875;DHT22;5490;52.200;8.786;2023-02-11T21:59:29;8.80;99.90
10875;DHT22;5490;52.200;8.786;2023-02-11T22:01:57;8.80;99.90
10875;DHT22;5490;52.200;8.786;2023-02-11T22:04:24;8.80;99.90
10875;DHT22;5490;52.200;8.786;2023-02-11T22:06:52;8.80;99.90
10875;DHT22;5490;52.200;8.786;2023-02-11T22:09:19;8.90;99.90
10875;DHT22;5490;52.200;8.786;2023-02-11T22:11:45;8.90;99.90
10875;DHT22;5490;52.200;8.786;2023-02-11T22:14:14;8.90;99.90
10875;DHT22;5490;52.200;8.786;2023-02-11T22:16:43;8.90;99.90
10875;DHT22;5490;52.200;8.786;2023-02-11T22:19:10;8.90;99.90
10875;DHT22;5490;52.200;8.786;2023-02-11T22:21:37;8.90;99.90
10875;DHT22;5490;52.200;8.786;2023-02-11T22:24:05;9.00;99.90
10875;DHT22;5490;52.200;8.786;2023-02-11T22:26:32;8.90;99.90
10875;DHT22;5490;52.200;8.786;2023-02-11T22:28:59;8.90;99.90
10875;DHT22;5490;52.200;8.786;2023-02-11T22:31:28;8.90;99.90
10875;DHT22;5490;52.200;8.786;2023-02-11T22:33:55;8.90;99.90
10875;DHT22;5490;52.200;8.786;2023-02-11T22:36:24;8.90;99.90
10875;DHT22;5490;52.200;8.786;2023-02-11T22:38:52;8.90;99.90
10875;DHT22;5490;52.200;8.786;2023-02-11T22:41:21;8.90;99.90
10875;DHT22;5490;52.200;8.786;2023-02-11T22:43:48;8.90;99.90
10875;DHT22;5490;52.200;8.786;2023-02-11T22:46:17;8.90;99.90
10875;DHT22;5490;52.200;8.786;2023-02-11T22:48:45;8.80;99.90
10875;DHT22;5490;52.200;8.786;2023-02-11T22:51:14;8.90;99.90
10875;DHT22;5490;52.200;8.786;2023-02-11T22:53:41;8.90;99.90
10875;DHT22;5490;52.200;8.786;2023-02-11T22:56:11;8.90;99.90
10875;DHT22;5490;52.200;8.786;2023-02-11T22:58:40;8.90;99.90
10875;DHT22;5490;52.200;8.786;2023-02-11T23:01:06;8.90;99.90
10875;DHT22;5490;52.200;8.786;2023-02-11T23:03:33;8.90;99.90
10875;DHT22;5490;52.200;8.786;2023-02-11T23:06:00;8.90;99.90
10875;DHT22;5490;52.200;8.786;2023-02-11T23:08:28;8.90;99.90
10875;DHT22;5490;52.200;8.786;2023-02-11T23:11:01;8.90;99.90
10875;DHT22;5490;52.200;8.786;2023-02-11T23:13:27;8.90;99.90
10875;DHT22;5490;52.200;8.786;2023-02-11T23:15:55;8.90;99.90
10875;DHT22;5490;52.200;8.786;2023-02-11T23:18:22;8.90;99.90
10875;DHT22;5490;52.200;8.786;2023-02-11T23:20:49;8.90;99.90
10875;DHT22;5490;52.200;8.786;2023-02-11T23:23:15;8.90;99.90
10875;DHT22;5490;52.200;8.786;2023-02-11T23:25:43;8.90;99.90
10875;DHT22;5490;52.200;8.786;2023-02-11T23:28:10;8.90;99.90
10875;DHT22;5490;52.200;8.786;2023-02-11T23:30:37;8.90;99.90
10875;DHT22;5490;52.200;8.786;2023-02-11T23:33:05;8.80;99.90
10875;DHT22;5490;52.200;8.786;2023-02-11T23:35:32;8.80;99.90
10875;DHT22;5490;52.200;8.786;2023-02-11T23:37:58;8.80;99.90
10875;DHT22;5490;52.200;8.786;2023-02-11T23:40:25;8.80;99.90
10875;DHT22;5490;52.200;8.786;2023-02-11T23:42:52;8.80;99.90
10875;DHT22;5490;52.200;8.786;2023-02-11T23:45:18;8.80;99.90
10875;DHT22;5490;52.200;8.786;2023-02-11T23:47:45;8.80;99.90
10875;DHT22;5490;52.200;8.786;2023-02-11T23:50:13;8.80;99.90
10875;DHT22;5490;52.200;8.786;2023-02-11T23:52:40;8.80;99.90
10875;DHT22;5490;52.200;8.786;2023-02-11T23:55:07;8.70;99.90
10875;DHT22;5490;52.200;8.786;2023-02-11T23:57:34;8.70;99.90
